sensor_id;sensor_type;location;lat;lon;timestamp;pressure;altitude;pressure_sealevel;temperature;humidity
72585;BME280;60618;40.084;32.908;2023-05-09T00:00:51;89546.50;;;11.38;74.12
72585;BME280;60618;40.084;32.908;2023-05-09T00:03:18;89542.31;;;11.32;73.86
72585;BME280;60618;40.084;32.908;2023-05-09T00:05:45;89543.28;;;11.29;74.46
72585;BME280;60618;40.084;32.908;2023-05-09T00:08:12;89555.66;;;11.32;73.87
72585;BME280;60618;40.084;32.908;2023-05-09T00:10:39;89545.94;;;11.29;74.35
72585;BME280;60618;40.084;32.908;2023-05-09T00:13:05;89544.75;;;11.30;74.22
72585;BME280;60618;40.084;32.908;2023-05-09T00:15:32;89551.28;;;11.29;74.60
72585;BME280;60618;40.084;32.908;2023-05-09T00:17:59;89535.28;;;11.29;74.84
72585;BME280;60618;40.084;32.908;2023-05-09T00:20:26;89547.84;;;11.23;74.23
72585;BME280;60618;40.084;32.908;2023-05-09T00:22:53;89540.53;;;11.18;74.80
72585;BME280;60618;40.084;32.908;2023-05-09T00:25:20;89543.88;;;11.07;75.67
72585;BME280;60618;40.084;32.908;2023-05-09T00:27:47;89549.38;;;10.98;76.34
72585;BME280;60618;40.084;32.908;2023-05-09T00:30:14;89542.84;;;11.04;76.20
72585;BME280;60618;40.084;32.908;2023-05-09T00:32:41;89548.25;;;11.10;76.08
72585;BME280;60618;40.084;32.908;2023-05-09T00:35:08;89551.22;;;11.18;76.29
72585;BME280;60618;40.084;32.908;2023-05-09T00:37:35;89548.59;;;11.23;75.88
72585;BME280;60618;40.084;32.908;2023-05-09T00:40:04;89541.50;;;11.15;75.70
72585;BME280;60618;40.084;32.908;2023-05-09T00:42:32;89542.19;;;11.09;76.10
72585;BME280;60618;40.084;32.908;2023-05-09T00:44:59;89537.53;;;11.04;76.81
72585;BME280;60618;40.084;32.908;2023-05-09T00:47:27;89540.72;;;11.08;75.94
72585;BME280;60618;40.084;32.908;2023-05-09T00:49:56;89552.16;;;11.15;76.24
72585;BME280;60618;40.084;32.908;2023-05-09T00:52:25;89544.03;;;10.98;76.99
72585;BME280;60618;40.084;32.908;2023-05-09T00:54:53;89549.63;;;11.00;76.73
72585;BME280;60618;40.084;32.908;2023-05-09T00:57:21;89544.97;;;10.95;76.95
72585;BME280;60618;40.084;32.908;2023-05-09T00:59:49;89542.28;;;10.95;77.45
72585;BME280;60618;40.084;32.908;2023-05-09T01:02:19;89539.63;;;10.95;76.99
72585;BME280;60618;40.084;32.908;2023-05-09T01:04:46;89539.44;;;10.98;76.77
72585;BME280;60618;40.084;32.908;2023-05-09T01:12:38;89528.09;;;10.77;77.71
72585;BME280;60618;40.084;32.908;2023-05-09T01:15:32;89529.78;;;10.75;78.08
72585;BME280;60618;40.084;32.908;2023-05-09T01:18:12;89523.63;;;10.95;77.17
72585;BME280;60618;40.084;32.908;2023-05-09T01:26:50;89536.97;;;11.26;75.43
72585;BME280;60618;40.084;32.908;2023-05-09T01:29:58;89533.06;;;11.22;76.04
72585;BME280;60618;40.084;32.908;2023-05-09T01:32:27;89537.09;;;11.12;76.30
72585;BME280;60618;40.084;32.908;2023-05-09T01:34:59;89531.03;;;11.11;76.45
72585;BME280;60618;40.084;32.908;2023-05-09T01:37:34;89540.53;;;11.18;75.78
72585;BME280;60618;40.084;32.908;2023-05-09T01:40:22;89541.50;;;11.15;76.46
72585;BME280;60618;40.084;32.908;2023-05-09T01:42:55;89536.28;;;11.00;76.52
72585;BME280;60618;40.084;32.908;2023-05-09T01:45:24;89534.59;;;11.02;76.52
72585;BME280;60618;40.084;32.908;2023-05-09T01:47:52;89539.31;;;10.87;77.58
72585;BME280;60618;40.084;32.908;2023-05-09T01:50:20;89547.31;;;10.87;77.48
72585;BME280;60618;40.084;32.908;2023-05-09T01:52:51;89539.50;;;11.09;76.55
72585;BME280;60618;40.084;32.908;2023-05-09T01:55:20;89542.19;;;11.09;76.25
72585;BME280;60618;40.084;32.908;2023-05-09T01:57:49;89545.97;;;10.97;77.36
72585;BME280;60618;40.084;32.908;2023-05-09T02:00:17;89543.31;;;10.97;76.96
72585;BME280;60618;40.084;32.908;2023-05-09T02:02:44;89538.09;;;11.14;76.49
72585;BME280;60618;40.084;32.908;2023-05-09T02:05:13;89538.69;;;11.29;75.80
72585;BME280;60618;40.084;32.908;2023-05-09T02:07:41;89533.97;;;11.13;76.16
72585;BME280;60618;40.084;32.908;2023-05-09T02:10:09;89531.81;;;11.17;75.74
72585;BME280;60618;40.084;32.908;2023-05-09T02:12:36;89527.16;;;11.12;76.06
72585;BME280;60618;40.084;32.908;2023-05-09T02:15:04;89518.19;;;11.09;76.24
72585;BME280;60618;40.084;32.908;2023-05-09T02:17:31;89533.19;;;11.07;76.66
72585;BME280;60618;40.084;32.908;2023-05-09T02:19:58;89535.09;;;11.01;76.50
72585;BME280;60618;40.084;32.908;2023-05-09T02:22:25;89531.31;;;10.87;77.53
72585;BME280;60618;40.084;32.908;2023-05-09T02:24:53;89538.75;;;10.77;77.44
72585;BME280;60618;40.084;32.908;2023-05-09T02:27:20;89538.91;;;10.94;76.61
72585;BME280;60618;40.084;32.908;2023-05-09T02:29:50;89535.03;;;10.95;76.28
72585;BME280;60618;40.084;32.908;2023-05-09T02:32:27;89531.69;;;11.00;75.97
72585;BME280;60618;40.084;32.908;2023-05-09T02:34:56;89531.22;;;11.02;76.23
72585;BME280;60618;40.084;32.908;2023-05-09T02:37:24;89539.75;;;11.12;75.89
72585;BME280;60618;40.084;32.908;2023-05-09T02:39:52;89530.91;;;11.26;74.90
72585;BME280;60618;40.084;32.908;2023-05-09T02:42:23;89535.22;;;11.18;75.18
72585;BME280;60618;40.084;32.908;2023-05-09T02:44:54;89554.66;;;11.24;74.73
72585;BME280;60618;40.084;32.908;2023-05-09T02:47:21;89548.78;;;11.20;74.50
72585;BME280;60618;40.084;32.908;2023-05-09T02:49:48;89548.53;;;11.18;74.88
72585;BME280;60618;40.084;32.908;2023-05-09T02:52:15;89546.38;;;11.22;74.70
72585;BME280;60618;40.084;32.908;2023-05-09T02:54:42;89546.69;;;11.29;74.25
72585;BME280;60618;40.084;32.908;2023-05-09T02:57:09;89551.22;;;11.18;75.19
72585;BME280;60618;40.084;32.908;2023-05-09T02:59:36;89549.03;;;11.16;74.93
72585;BME280;60618;40.084;32.908;2023-05-09T03:02:03;89547.50;;;11.09;75.48
72585;BME280;60618;40.084;32.908;2023-05-09T03:04:29;89556.47;;;11.06;75.62
72585;BME280;60618;40.084;32.908;2023-05-09T03:06:56;89554.56;;;11.13;75.27
72585;BME280;60618;40.084;32.908;2023-05-09T03:09:23;89560.00;;;11.24;75.46
72585;BME280;60618;40.084;32.908;2023-05-09T03:11:50;89558.31;;;11.32;74.99
72585;BME280;60618;40.084;32.908;2023-05-09T03:14:17;89550.97;;;11.21;75.52
72585;BME280;60618;40.084;32.908;2023-05-09T03:16:44;89574.06;;;10.98;76.59
72585;BME280;60618;40.084;32.908;2023-05-09T03:19:11;89572.88;;;10.99;76.16
72585;BME280;60618;40.084;32.908;2023-05-09T03:21:38;89567.31;;;10.77;77.33
72585;BME280;60618;40.084;32.908;2023-05-09T03:24:06;89563.34;;;10.67;77.90
72585;BME280;60618;40.084;32.908;2023-05-09T03:26:33;89570.84;;;10.63;78.07
72585;BME280;60618;40.084;32.908;2023-05-09T03:29:01;89575.84;;;10.81;78.27
72585;BME280;60618;40.084;32.908;2023-05-09T03:31:28;89585.81;;;10.86;77.67
72585;BME280;60618;40.084;32.908;2023-05-09T03:33:55;89567.03;;;10.69;78.76
72585;BME280;60618;40.084;32.908;2023-05-09T03:36:23;89578.34;;;10.90;77.46
72585;BME280;60618;40.084;32.908;2023-05-09T03:38:50;89587.91;;;11.02;77.25
72585;BME280;60618;40.084;32.908;2023-05-09T03:41:17;89580.38;;;11.01;77.19
72585;BME280;60618;40.084;32.908;2023-05-09T03:43:44;89584.31;;;10.79;78.27
72585;BME280;60618;40.084;32.908;2023-05-09T03:46:11;89584.00;;;10.72;78.90
72585;BME280;60618;40.084;32.908;2023-05-09T03:48:38;89590.16;;;10.84;78.36
72585;BME280;60618;40.084;32.908;2023-05-09T03:51:05;89597.31;;;10.98;78.42
72585;BME280;60618;40.084;32.908;2023-05-09T03:53:32;89600.16;;;11.15;78.27
72585;BME280;60618;40.084;32.908;2023-05-09T03:55:59;89601.81;;;11.44;77.90
72585;BME280;60618;40.084;32.908;2023-05-09T03:58:26;89607.56;;;11.68;76.34
72585;BME280;60618;40.084;32.908;2023-05-09T04:00:53;89602.34;;;11.85;74.03
72585;BME280;60618;40.084;32.908;2023-05-09T04:03:20;89607.84;;;12.07;73.47
72585;BME280;60618;40.084;32.908;2023-05-09T04:05:47;89608.81;;;12.10;73.21
72585;BME280;60618;40.084;32.908;2023-05-09T04:08:14;89617.47;;;12.42;72.99
72585;BME280;60618;40.084;32.908;2023-05-09T04:10:41;89612.94;;;12.59;71.43
72585;BME280;60618;40.084;32.908;2023-05-09T04:13:08;89601.75;;;12.66;71.09
72585;BME280;60618;40.084;32.908;2023-05-09T04:15:35;89615.38;;;12.74;70.66
72585;BME280;60618;40.084;32.908;2023-05-09T04:18:02;89607.41;;;12.91;70.27
72585;BME280;60618;40.084;32.908;2023-05-09T04:20:29;89610.09;;;13.02;70.72
72585;BME280;60618;40.084;32.908;2023-05-09T04:22:56;89614.69;;;12.85;70.46
72585;BME280;60618;40.084;32.908;2023-05-09T04:25:23;89608.56;;;12.62;71.04
72585;BME280;60618;40.084;32.908;2023-05-09T04:27:50;89610.09;;;12.91;71.08
72585;BME280;60618;40.084;32.908;2023-05-09T04:30:17;89602.59;;;13.06;70.61
72585;BME280;60618;40.084;32.908;2023-05-09T04:32:44;89603.63;;;13.37;70.50
72585;BME280;60618;40.084;32.908;2023-05-09T04:35:12;89595.84;;;13.61;68.26
72585;BME280;60618;40.084;32.908;2023-05-09T04:37:39;89596.81;;;13.35;68.70
72585;BME280;60618;40.084;32.908;2023-05-09T04:40:07;89606.28;;;13.20;69.14
72585;BME280;60618;40.084;32.908;2023-05-09T04:42:34;89613.59;;;13.47;69.02
72585;BME280;60618;40.084;32.908;2023-05-09T04:45:01;89611.19;;;13.66;67.54
72585;BME280;60618;40.084;32.908;2023-05-09T04:47:28;89610.88;;;14.09;66.77
72585;BME280;60618;40.084;32.908;2023-05-09T04:49:55;89613.03;;;14.27;65.60
72585;BME280;60618;40.084;32.908;2023-05-09T04:52:22;89615.06;;;13.82;66.81
72585;BME280;60618;40.084;32.908;2023-05-09T04:54:49;89614.09;;;13.46;68.03
72585;BME280;60618;40.084;32.908;2023-05-09T04:57:16;89622.59;;;13.27;69.00
72585;BME280;60618;40.084;32.908;2023-05-09T04:59:44;89616.75;;;13.34;68.76
72585;BME280;60618;40.084;32.908;2023-05-09T05:02:11;89608.50;;;13.32;69.67
72585;BME280;60618;40.084;32.908;2023-05-09T05:04:38;89606.97;;;13.09;69.62
72585;BME280;60618;40.084;32.908;2023-05-09T05:07:05;89604.78;;;12.96;70.55
72585;BME280;60618;40.084;32.908;2023-05-09T05:09:32;89602.59;;;12.95;70.45
72585;BME280;60618;40.084;32.908;2023-05-09T05:11:59;89596.78;;;13.13;70.13
72585;BME280;60618;40.084;32.908;2023-05-09T05:14:30;89607.03;;;13.65;67.98
72585;BME280;60618;40.084;32.908;2023-05-09T05:16:57;89602.41;;;13.94;68.10
72585;BME280;60618;40.084;32.908;2023-05-09T05:19:24;89606.75;;;14.13;67.07
72585;BME280;60618;40.084;32.908;2023-05-09T05:21:51;89595.34;;;13.79;67.09
72585;BME280;60618;40.084;32.908;2023-05-09T05:24:18;89594.38;;;13.82;67.62
72585;BME280;60618;40.084;32.908;2023-05-09T05:26:45;89606.97;;;14.21;66.79
72585;BME280;60618;40.084;32.908;2023-05-09T05:29:12;89604.03;;;14.30;66.39
72585;BME280;60618;40.084;32.908;2023-05-09T05:31:38;89602.53;;;14.35;65.15
72585;BME280;60618;40.084;32.908;2023-05-09T05:34:05;89597.41;;;14.42;65.11
72585;BME280;60618;40.084;32.908;2023-05-09T05:36:32;89612.31;;;14.21;65.64
72585;BME280;60618;40.084;32.908;2023-05-09T05:38:59;89612.28;;;14.32;66.19
72585;BME280;60618;40.084;32.908;2023-05-09T05:41:26;89597.06;;;14.74;65.08
72585;BME280;60618;40.084;32.908;2023-05-09T05:43:53;89609.69;;;15.26;63.16
72585;BME280;60618;40.084;32.908;2023-05-09T05:46:22;89611.25;;;15.51;62.61
72585;BME280;60618;40.084;32.908;2023-05-09T05:48:49;89616.50;;;15.74;60.91
72585;BME280;60618;40.084;32.908;2023-05-09T05:51:16;89615.72;;;15.79;60.94
72585;BME280;60618;40.084;32.908;2023-05-09T05:53:43;89600.19;;;15.96;59.82
72585;BME280;60618;40.084;32.908;2023-05-09T05:56:10;89607.81;;;16.16;59.23
72585;BME280;60618;40.084;32.908;2023-05-09T05:58:37;89610.81;;;15.83;59.84
72585;BME280;60618;40.084;32.908;2023-05-09T06:01:04;89607.47;;;16.01;59.52
72585;BME280;60618;40.084;32.908;2023-05-09T06:03:31;89608.38;;;16.09;60.31
72585;BME280;60618;40.084;32.908;2023-05-09T06:05:58;89610.56;;;16.11;59.64
72585;BME280;60618;40.084;32.908;2023-05-09T06:08:25;89613.22;;;15.86;59.73
72585;BME280;60618;40.084;32.908;2023-05-09T06:10:52;89614.84;;;15.95;60.12
72585;BME280;60618;40.084;32.908;2023-05-09T06:13:19;89609.38;;;16.06;58.85
72585;BME280;60618;40.084;32.908;2023-05-09T06:15:46;89608.31;;;16.39;59.44
72585;BME280;60618;40.084;32.908;2023-05-09T06:18:13;89603.53;;;16.51;58.68
72585;BME280;60618;40.084;32.908;2023-05-09T06:20:40;89610.38;;;16.52;57.58
72585;BME280;60618;40.084;32.908;2023-05-09T06:23:07;89606.91;;;16.82;57.24
72585;BME280;60618;40.084;32.908;2023-05-09T06:25:34;89615.09;;;16.70;57.71
72585;BME280;60618;40.084;32.908;2023-05-09T06:28:01;89615.94;;;16.84;56.71
72585;BME280;60618;40.084;32.908;2023-05-09T06:30:28;89611.28;;;17.03;56.59
72585;BME280;60618;40.084;32.908;2023-05-09T06:32:55;89620.00;;;16.66;57.93
72585;BME280;60618;40.084;32.908;2023-05-09T06:35:22;89606.84;;;16.63;57.09
72585;BME280;60618;40.084;32.908;2023-05-09T06:37:49;89603.06;;;16.28;57.92
72585;BME280;60618;40.084;32.908;2023-05-09T06:40:16;89617.97;;;16.29;59.25
72585;BME280;60618;40.084;32.908;2023-05-09T06:42:43;89602.59;;;16.24;58.80
72585;BME280;60618;40.084;32.908;2023-05-09T06:45:10;89604.91;;;16.63;56.87
72585;BME280;60618;40.084;32.908;2023-05-09T06:47:38;89615.66;;;16.63;57.99
72585;BME280;60618;40.084;32.908;2023-05-09T06:50:05;89603.66;;;17.26;55.35
72585;BME280;60618;40.084;32.908;2023-05-09T06:52:32;89598.00;;;17.43;54.03
72585;BME280;60618;40.084;32.908;2023-05-09T06:54:59;89599.09;;;17.72;53.66
72585;BME280;60618;40.084;32.908;2023-05-09T06:57:26;89602.81;;;17.50;54.54
72585;BME280;60618;40.084;32.908;2023-05-09T06:59:53;89597.69;;;17.15;56.04
72585;BME280;60618;40.084;32.908;2023-05-09T07:02:20;89606.31;;;16.45;57.45
72585;BME280;60618;40.084;32.908;2023-05-09T07:04:47;89602.31;;;16.77;57.88
72585;BME280;60618;40.084;32.908;2023-05-09T07:07:14;89598.50;;;16.66;56.69
72585;BME280;60618;40.084;32.908;2023-05-09T07:09:42;89603.06;;;17.15;55.87
72585;BME280;60618;40.084;32.908;2023-05-09T07:12:08;89591.53;;;17.71;54.27
72585;BME280;60618;40.084;32.908;2023-05-09T07:14:36;89596.25;;;17.65;54.03
72585;BME280;60618;40.084;32.908;2023-05-09T07:17:03;89594.25;;;17.84;53.96
72585;BME280;60618;40.084;32.908;2023-05-09T07:19:48;89596.53;;;18.38;53.26
72585;BME280;60618;40.084;32.908;2023-05-09T07:22:15;89586.16;;;18.56;51.99
72585;BME280;60618;40.084;32.908;2023-05-09T07:24:42;89582.91;;;19.10;50.77
72585;BME280;60618;40.084;32.908;2023-05-09T07:27:09;89581.66;;;19.11;51.41
72585;BME280;60618;40.084;32.908;2023-05-09T07:29:36;89585.84;;;18.86;50.65
72585;BME280;60618;40.084;32.908;2023-05-09T07:32:03;89585.72;;;19.18;50.07
72585;BME280;60618;40.084;32.908;2023-05-09T07:34:30;89584.16;;;18.03;51.55
72585;BME280;60618;40.084;32.908;2023-05-09T07:36:57;89579.00;;;17.73;52.53
72585;BME280;60618;40.084;32.908;2023-05-09T07:39:24;89574.88;;;17.85;51.54
72585;BME280;60618;40.084;32.908;2023-05-09T07:41:51;89576.09;;;17.71;50.32
72585;BME280;60618;40.084;32.908;2023-05-09T07:44:18;89576.78;;;17.91;50.54
72585;BME280;60618;40.084;32.908;2023-05-09T07:46:45;89573.63;;;18.45;50.84
72585;BME280;60618;40.084;32.908;2023-05-09T07:49:12;89563.03;;;18.60;48.81
72585;BME280;60618;40.084;32.908;2023-05-09T07:51:39;89569.25;;;18.29;49.19
72585;BME280;60618;40.084;32.908;2023-05-09T07:54:06;89555.78;;;17.70;51.12
72585;BME280;60618;40.084;32.908;2023-05-09T07:56:33;89554.63;;;18.11;50.38
72585;BME280;60618;40.084;32.908;2023-05-09T07:59:00;89556.84;;;17.80;50.67
72585;BME280;60618;40.084;32.908;2023-05-09T08:01:27;89561.22;;;17.33;52.23
72585;BME280;60618;40.084;32.908;2023-05-09T08:03:54;89557.53;;;16.98;53.08
72585;BME280;60618;40.084;32.908;2023-05-09T08:06:21;89541.69;;;17.45;52.97
72585;BME280;60618;40.084;32.908;2023-05-09T08:08:48;89552.72;;;17.79;52.61
72585;BME280;60618;40.084;32.908;2023-05-09T08:11:15;89552.25;;;18.47;51.49
72585;BME280;60618;40.084;32.908;2023-05-09T08:13:42;89548.84;;;18.73;48.93
72585;BME280;60618;40.084;32.908;2023-05-09T08:16:09;89553.06;;;18.68;48.94
72585;BME280;60618;40.084;32.908;2023-05-09T08:18:36;89535.78;;;18.24;48.62
72585;BME280;60618;40.084;32.908;2023-05-09T08:21:03;89541.03;;;18.56;48.65
72585;BME280;60618;40.084;32.908;2023-05-09T08:23:31;89545.06;;;18.89;48.43
72585;BME280;60618;40.084;32.908;2023-05-09T08:25:58;89541.53;;;18.94;48.43
72585;BME280;60618;40.084;32.908;2023-05-09T08:28:25;89541.38;;;18.79;47.84
72585;BME280;60618;40.084;32.908;2023-05-09T08:30:52;89531.78;;;19.25;47.60
72585;BME280;60618;40.084;32.908;2023-05-09T08:33:18;89537.22;;;18.65;48.58
72585;BME280;60618;40.084;32.908;2023-05-09T08:35:55;89530.16;;;18.49;48.06
72585;BME280;60618;40.084;32.908;2023-05-09T08:38:22;89524.78;;;18.35;48.16
72585;BME280;60618;40.084;32.908;2023-05-09T08:40:50;89523.50;;;18.50;48.43
72585;BME280;60618;40.084;32.908;2023-05-09T08:43:20;89516.06;;;18.16;49.25
72585;BME280;60618;40.084;32.908;2023-05-09T08:45:55;89526.81;;;18.69;47.82
72585;BME280;60618;40.084;32.908;2023-05-09T08:48:24;89529.91;;;18.86;46.68
72585;BME280;60618;40.084;32.908;2023-05-09T08:50:51;89517.94;;;19.08;45.50
72585;BME280;60618;40.084;32.908;2023-05-09T08:53:19;89521.06;;;19.33;42.34
72585;BME280;60618;40.084;32.908;2023-05-09T08:55:46;89518.41;;;19.75;42.92
72585;BME280;60618;40.084;32.908;2023-05-09T08:58:14;89518.53;;;20.19;41.08
72585;BME280;60618;40.084;32.908;2023-05-09T09:00:41;89523.75;;;19.88;42.35
72585;BME280;60618;40.084;32.908;2023-05-09T09:03:08;89516.16;;;19.66;40.45
72585;BME280;60618;40.084;32.908;2023-05-09T09:05:37;89514.34;;;19.47;42.47
72585;BME280;60618;40.084;32.908;2023-05-09T09:08:11;89504.28;;;19.48;42.67
72585;BME280;60618;40.084;32.908;2023-05-09T09:10:43;89504.06;;;20.08;43.44
72585;BME280;60618;40.084;32.908;2023-05-09T09:13:11;89508.97;;;20.75;42.35
72585;BME280;60618;40.084;32.908;2023-05-09T09:15:40;89493.66;;;20.77;39.05
72585;BME280;60618;40.084;32.908;2023-05-09T09:18:11;89479.28;;;20.25;39.20
72585;BME280;60618;40.084;32.908;2023-05-09T09:20:50;89492.91;;;20.12;39.34
72585;BME280;60618;40.084;32.908;2023-05-09T09:23:19;89493.53;;;20.54;39.44
72585;BME280;60618;40.084;32.908;2023-05-09T09:26:01;89490.72;;;20.10;40.15
72585;BME280;60618;40.084;32.908;2023-05-09T09:28:28;89484.69;;;20.25;39.16
72585;BME280;60618;40.084;32.908;2023-05-09T09:30:55;89490.00;;;20.38;37.04
72585;BME280;60618;40.084;32.908;2023-05-09T09:33:24;89487.16;;;20.80;37.50
72585;BME280;60618;40.084;32.908;2023-05-09T09:35:53;89488.75;;;21.27;39.03
72585;BME280;60618;40.084;32.908;2023-05-09T09:38:22;89476.44;;;21.18;37.61
72585;BME280;60618;40.084;32.908;2023-05-09T09:40:53;89487.00;;;20.86;37.59
72585;BME280;60618;40.084;32.908;2023-05-09T09:43:29;89474.16;;;21.30;37.47
72585;BME280;60618;40.084;32.908;2023-05-09T09:46:00;89472.19;;;21.53;36.22
72585;BME280;60618;40.084;32.908;2023-05-09T09:48:32;89459.06;;;21.06;34.16
72585;BME280;60618;40.084;32.908;2023-05-09T09:51:18;89458.97;;;20.76;35.47
72585;BME280;60618;40.084;32.908;2023-05-09T09:53:45;89466.31;;;21.19;36.55
72585;BME280;60618;40.084;32.908;2023-05-09T09:56:12;89454.84;;;21.57;36.78
72585;BME280;60618;40.084;32.908;2023-05-09T09:58:39;89451.25;;;21.85;35.73
72585;BME280;60618;40.084;32.908;2023-05-09T10:01:09;89443.09;;;22.00;36.73
72585;BME280;60618;40.084;32.908;2023-05-09T10:03:38;89448.63;;;22.48;35.10
72585;BME280;60618;40.084;32.908;2023-05-09T10:06:23;89434.81;;;22.61;34.16
72585;BME280;60618;40.084;32.908;2023-05-09T10:08:50;89442.69;;;22.26;35.30
72585;BME280;60618;40.084;32.908;2023-05-09T10:11:17;89444.91;;;21.90;33.46
72585;BME280;60618;40.084;32.908;2023-05-09T10:13:45;89440.19;;;20.70;33.50
72585;BME280;60618;40.084;32.908;2023-05-09T10:16:12;89436.09;;;20.40;35.17
72585;BME280;60618;40.084;32.908;2023-05-09T10:18:41;89430.06;;;20.27;35.25
72585;BME280;60618;40.084;32.908;2023-05-09T10:21:10;89435.78;;;20.16;36.73
72585;BME280;60618;40.084;32.908;2023-05-09T10:23:41;89446.41;;;20.93;36.08
72585;BME280;60618;40.084;32.908;2023-05-09T10:26:22;89434.16;;;21.08;34.87
72585;BME280;60618;40.084;32.908;2023-05-09T10:28:52;89439.59;;;21.08;35.34
72585;BME280;60618;40.084;32.908;2023-05-09T10:31:27;89436.22;;;21.45;34.50
72585;BME280;60618;40.084;32.908;2023-05-09T10:34:00;89438.56;;;22.18;33.48
72585;BME280;60618;40.084;32.908;2023-05-09T10:36:28;89438.06;;;22.67;32.24
72585;BME280;60618;40.084;32.908;2023-05-09T10:38:55;89438.22;;;22.84;31.90
72585;BME280;60618;40.084;32.908;2023-05-09T10:41:23;89431.91;;;22.74;32.21
72585;BME280;60618;40.084;32.908;2023-05-09T10:43:50;89430.47;;;21.49;31.36
72585;BME280;60618;40.084;32.908;2023-05-09T10:46:17;89430.97;;;20.65;31.79
72585;BME280;60618;40.084;32.908;2023-05-09T10:48:46;89430.94;;;20.50;33.62
72585;BME280;60618;40.084;32.908;2023-05-09T10:51:14;89437.28;;;20.60;33.42
72585;BME280;60618;40.084;32.908;2023-05-09T10:53:47;89443.50;;;20.40;33.91
72585;BME280;60618;40.084;32.908;2023-05-09T10:56:44;89443.97;;;20.31;31.28
72585;BME280;60618;40.084;32.908;2023-05-09T10:59:34;89444.78;;;20.90;37.15
72585;BME280;60618;40.084;32.908;2023-05-09T11:02:01;89438.78;;;21.59;36.02
72585;BME280;60618;40.084;32.908;2023-05-09T11:04:30;89439.66;;;21.92;35.67
72585;BME280;60618;40.084;32.908;2023-05-09T11:06:59;89446.69;;;22.18;35.11
72585;BME280;60618;40.084;32.908;2023-05-09T11:09:31;89433.09;;;22.41;34.83
72585;BME280;60618;40.084;32.908;2023-05-09T11:12:11;89442.63;;;22.57;33.72
72585;BME280;60618;40.084;32.908;2023-05-09T11:14:48;89433.66;;;22.79;34.02
72585;BME280;60618;40.084;32.908;2023-05-09T11:22:19;89432.94;;;23.51;31.68
72585;BME280;60618;40.084;32.908;2023-05-09T11:24:49;89431.50;;;23.50;30.36
72585;BME280;60618;40.084;32.908;2023-05-09T11:29:56;89439.75;;;23.68;30.25
72585;BME280;60618;40.084;32.908;2023-05-09T11:32:29;89432.50;;;23.63;29.77
72585;BME280;60618;40.084;32.908;2023-05-09T11:35:23;89437.59;;;23.59;30.63
72585;BME280;60618;40.084;32.908;2023-05-09T11:38:04;89427.22;;;23.40;30.72
72585;BME280;60618;40.084;32.908;2023-05-09T11:40:33;89430.19;;;23.27;30.71
72585;BME280;60618;40.084;32.908;2023-05-09T11:43:00;89427.44;;;23.02;30.33
72585;BME280;60618;40.084;32.908;2023-05-09T11:45:30;89420.97;;;22.89;30.59
72585;BME280;60618;40.084;32.908;2023-05-09T11:47:58;89437.66;;;22.78;29.93
72585;BME280;60618;40.084;32.908;2023-05-09T11:50:25;89420.66;;;22.78;30.25
72585;BME280;60618;40.084;32.908;2023-05-09T11:52:53;89428.97;;;22.87;30.57
72585;BME280;60618;40.084;32.908;2023-05-09T11:55:20;89435.41;;;23.00;30.13
72585;BME280;60618;40.084;32.908;2023-05-09T11:57:50;89428.97;;;22.80;30.51
72585;BME280;60618;40.084;32.908;2023-05-09T12:00:20;89423.09;;;22.99;30.92
72585;BME280;60618;40.084;32.908;2023-05-09T12:02:47;89428.63;;;23.16;29.94
72585;BME280;60618;40.084;32.908;2023-05-09T12:05:17;89413.47;;;23.38;30.72
72585;BME280;60618;40.084;32.908;2023-05-09T12:07:45;89416.78;;;23.54;30.18
72585;BME280;60618;40.084;32.908;2023-05-09T12:10:18;89407.72;;;23.26;29.33
72585;BME280;60618;40.084;32.908;2023-05-09T12:12:50;89399.22;;;23.30;30.63
72585;BME280;60618;40.084;32.908;2023-05-09T12:15:18;89409.97;;;23.20;30.42
72585;BME280;60618;40.084;32.908;2023-05-09T12:17:46;89408.56;;;23.36;29.70
72585;BME280;60618;40.084;32.908;2023-05-09T12:20:17;89390.44;;;23.39;30.04
72585;BME280;60618;40.084;32.908;2023-05-09T12:22:51;89402.38;;;23.93;30.04
72585;BME280;60618;40.084;32.908;2023-05-09T12:25:19;89397.59;;;24.19;28.18
72585;BME280;60618;40.084;32.908;2023-05-09T12:27:46;89379.09;;;24.52;30.39
72585;BME280;60618;40.084;32.908;2023-05-09T12:30:13;89386.94;;;24.82;29.96
72585;BME280;60618;40.084;32.908;2023-05-09T12:32:40;89382.06;;;24.63;27.79
72585;BME280;60618;40.084;32.908;2023-05-09T12:35:08;89385.28;;;24.52;28.46
72585;BME280;60618;40.084;32.908;2023-05-09T12:37:36;89379.28;;;24.54;28.06
72585;BME280;60618;40.084;32.908;2023-05-09T12:40:11;89372.41;;;24.80;28.57
72585;BME280;60618;40.084;32.908;2023-05-09T12:42:42;89368.78;;;24.95;28.69
72585;BME280;60618;40.084;32.908;2023-05-09T12:45:10;89363.88;;;25.10;29.28
72585;BME280;60618;40.084;32.908;2023-05-09T12:47:38;89368.16;;;24.86;27.55
72585;BME280;60618;40.084;32.908;2023-05-09T12:50:06;89375.25;;;24.20;28.88
72585;BME280;60618;40.084;32.908;2023-05-09T12:52:40;89366.00;;;23.81;29.75
72585;BME280;60618;40.084;32.908;2023-05-09T12:55:28;89364.69;;;23.40;30.35
72585;BME280;60618;40.084;32.908;2023-05-09T12:57:59;89352.09;;;23.52;30.87
72585;BME280;60618;40.084;32.908;2023-05-09T13:00:26;89366.81;;;23.49;31.27
72585;BME280;60618;40.084;32.908;2023-05-09T13:02:54;89372.47;;;23.43;31.15
72585;BME280;60618;40.084;32.908;2023-05-09T13:05:22;89376.56;;;23.27;31.76
72585;BME280;60618;40.084;32.908;2023-05-09T13:07:50;89379.47;;;23.29;31.09
72585;BME280;60618;40.084;32.908;2023-05-09T13:10:24;89364.91;;;23.09;31.65
72585;BME280;60618;40.084;32.908;2023-05-09T13:12:51;89372.78;;;22.98;31.75
72585;BME280;60618;40.084;32.908;2023-05-09T13:15:19;89367.78;;;22.86;31.98
72585;BME280;60618;40.084;32.908;2023-05-09T13:17:48;89373.94;;;22.79;32.08